sensor_id;sensor_type;location;lat;lon;timestamp;temperature;humidity
13982;DHT22;7065;50.880;5.502;2024-01-15T00:02:18;0.90;99.90
13982;DHT22;7065;50.880;5.502;2024-01-15T00:04:44;1.00;99.90
13982;DHT22;7065;50.880;5.502;2024-01-15T00:07:09;1.00;99.90
13982;DHT22;7065;50.880;5.502;2024-01-15T00:09:35;1.00;99.90
13982;DHT22;7065;50.880;5.502;2024-01-15T00:12:01;1.00;99.90
13982;DHT22;7065;50.880;5.502;2024-01-15T00:14:28;1.00;99.90
13982;DHT22;7065;50.880;5.502;2024-01-15T00:16:54;1.00;99.90
13982;DHT22;7065;50.880;5.502;2024-01-15T00:19:23;1.00;99.90
13982;DHT22;7065;50.880;5.502;2024-01-15T00:21:49;1.00;99.90
13982;DHT22;7065;50.880;5.502;2024-01-15T00:24:15;1.00;99.90
13982;DHT22;7065;50.880;5.502;2024-01-15T00:26:41;0.90;99.90
13982;DHT22;7065;50.880;5.502;2024-01-15T00:29:08;0.90;99.90
13982;DHT22;7065;50.880;5.502;2024-01-15T00:31:34;0.90;99.90
13982;DHT22;7065;50.880;5.502;2024-01-15T00:34:00;0.90;99.90
13982;DHT22;7065;50.880;5.502;2024-01-15T00:36:26;0.90;99.90
13982;DHT22;7065;50.880;5.502;2024-01-15T00:38:52;0.90;99.90
13982;DHT22;7065;50.880;5.502;2024-01-15T00:41:18;0.90;99.90
13982;DHT22;7065;50.880;5.502;2024-01-15T00:43:45;0.90;99.90
13982;DHT22;7065;50.880;5.502;2024-01-15T00:46:11;0.80;99.90
13982;DHT22;7065;50.880;5.502;2024-01-15T00:48:37;0.80;99.90
13982;DHT22;7065;50.880;5.502;2024-01-15T00:51:04;0.80;99.90
13982;DHT22;7065;50.880;5.502;2024-01-15T00:53:30;0.80;99.90
13982;DHT22;7065;50.880;5.502;2024-01-15T00:55:55;0.70;99.90
13982;DHT22;7065;50.880;5.502;2024-01-15T00:58:21;0.70;99.90
13982;DHT22;7065;50.880;5.502;2024-01-15T01:00:47;0.70;99.90
13982;DHT22;7065;50.880;5.502;2024-01-15T01:03:12;0.60;99.90
13982;DHT22;7065;50.880;5.502;2024-01-15T01:05:38;0.60;99.90
13982;DHT22;7065;50.880;5.502;2024-01-15T01:08:04;0.60;99.90
13982;DHT22;7065;50.880;5.502;2024-01-15T01:10:30;0.60;99.90
13982;DHT22;7065;50.880;5.502;2024-01-15T01:12:56;0.60;99.90
13982;DHT22;7065;50.880;5.502;2024-01-15T01:15:21;0.50;99.90
13982;DHT22;7065;50.880;5.502;2024-01-15T01:17:48;0.50;99.90
13982;DHT22;7065;50.880;5.502;2024-01-15T01:20:14;0.50;99.90
13982;DHT22;7065;50.880;5.502;2024-01-15T01:22:41;0.50;99.90
13982;DHT22;7065;50.880;5.502;2024-01-15T01:25:06;0.50;99.90
13982;DHT22;7065;50.880;5.502;2024-01-15T01:27:32;0.50;99.90
13982;DHT22;7065;50.880;5.502;2024-01-15T01:29:58;0.50;99.90
13982;DHT22;7065;50.880;5.502;2024-01-15T01:32:24;0.50;99.90
13982;DHT22;7065;50.880;5.502;2024-01-15T01:34:50;0.50;99.90
13982;DHT22;7065;50.880;5.502;2024-01-15T01:37:15;0.60;99.90
13982;DHT22;7065;50.880;5.502;2024-01-15T01:39:42;0.60;99.90
13982;DHT22;7065;50.880;5.502;2024-01-15T01:42:08;0.60;99.90
13982;DHT22;7065;50.880;5.502;2024-01-15T01:44:34;0.60;99.90
13982;DHT22;7065;50.880;5.502;2024-01-15T01:47:00;0.60;99.90
13982;DHT22;7065;50.880;5.502;2024-01-15T01:49:27;0.70;99.90
13982;DHT22;7065;50.880;5.502;2024-01-15T01:51:56;0.70;99.90
13982;DHT22;7065;50.880;5.502;2024-01-15T01:54:23;0.70;99.90
13982;DHT22;7065;50.880;5.502;2024-01-15T01:56:50;0.70;99.90
13982;DHT22;7065;50.880;5.502;2024-01-15T01:59:17;0.80;99.90
13982;DHT22;7065;50.880;5.502;2024-01-15T02:01:44;0.80;99.90
13982;DHT22;7065;50.880;5.502;2024-01-15T02:04:11;0.80;99.90
13982;DHT22;7065;50.880;5.502;2024-01-15T02:06:37;0.80;99.90
13982;DHT22;7065;50.880;5.502;2024-01-15T02:09:03;0.80;99.90
13982;DHT22;7065;50.880;5.502;2024-01-15T02:11:29;0.80;99.90
13982;DHT22;7065;50.880;5.502;2024-01-15T02:13:55;0.80;99.90
13982;DHT22;7065;50.880;5.502;2024-01-15T02:16:21;0.80;99.90
13982;DHT22;7065;50.880;5.502;2024-01-15T02:18:46;0.80;99.90
13982;DHT22;7065;50.880;5.502;2024-01-15T02:21:12;0.80;99.90
13982;DHT22;7065;50.880;5.502;2024-01-15T02:23:38;0.80;99.90
13982;DHT22;7065;50.880;5.502;2024-01-15T02:26:08;0.90;99.90
13982;DHT22;7065;50.880;5.502;2024-01-15T02:28:34;0.90;99.90
13982;DHT22;7065;50.880;5.502;2024-01-15T02:31:00;0.80;99.90
13982;DHT22;7065;50.880;5.502;2024-01-15T02:33:25;0.90;99.90
13982;DHT22;7065;50.880;5.502;2024-01-15T02:35:52;0.90;99.90
13982;DHT22;7065;50.880;5.502;2024-01-15T02:38:17;0.90;99.90
13982;DHT22;7065;50.880;5.502;2024-01-15T02:40:44;0.90;99.90
13982;DHT22;7065;50.880;5.502;2024-01-15T02:43:10;0.90;99.90
13982;DHT22;7065;50.880;5.502;2024-01-15T02:45:37;0.90;99.90
13982;DHT22;7065;50.880;5.502;2024-01-15T02:48:03;0.90;99.90
13982;DHT22;7065;50.880;5.502;2024-01-15T02:50:29;0.90;99.90
13982;DHT22;7065;50.880;5.502;2024-01-15T02:52:54;1.00;99.90
13982;DHT22;7065;50.880;5.502;2024-01-15T02:55:20;0.90;99.90
13982;DHT22;7065;50.880;5.502;2024-01-15T02:57:46;1.00;99.90
13982;DHT22;7065;50.880;5.502;2024-01-15T03:00:11;1.00;99.90
13982;DHT22;7065;50.880;5.502;2024-01-15T03:02:38;1.00;99.90
13982;DHT22;7065;50.880;5.502;2024-01-15T03:05:09;0.90;99.90
13982;DHT22;7065;50.880;5.502;2024-01-15T03:07:35;1.00;99.90
13982;DHT22;7065;50.880;5.502;2024-01-15T03:10:01;1.00;99.90
13982;DHT22;7065;50.880;5.502;2024-01-15T03:12:27;1.00;99.90
13982;DHT22;7065;50.880;5.502;2024-01-15T03:14:53;0.90;99.90
13982;DHT22;7065;50.880;5.502;2024-01-15T03:17:19;1.00;99.90
13982;DHT22;7065;50.880;5.502;2024-01-15T03:19:45;1.00;99.90
13982;DHT22;7065;50.880;5.502;2024-01-15T03:22:10;1.00;99.90
13982;DHT22;7065;50.880;5.502;2024-01-15T03:24:36;1.00;99.90
13982;DHT22;7065;50.880;5.502;2024-01-15T03:27:02;1.00;99.90
13982;DHT22;7065;50.880;5.502;2024-01-15T03:29:28;1.00;99.90
13982;DHT22;7065;50.880;5.502;2024-01-15T03:31:53;1.00;99.90
13982;DHT22;7065;50.880;5.502;2024-01-15T03:34:19;1.00;99.90
13982;DHT22;7065;50.880;5.502;2024-01-15T03:36:45;1.00;99.90
13982;DHT22;7065;50.880;5.502;2024-01-15T03:39:11;1.00;99.90
13982;DHT22;7065;50.880;5.502;2024-01-15T03:41:36;1.00;99.90
13982;DHT22;7065;50.880;5.502;2024-01-15T03:44:02;1.00;99.90
13982;DHT22;7065;50.880;5.502;2024-01-15T03:46:28;1.00;99.90
13982;DHT22;7065;50.880;5.502;2024-01-15T03:48:54;1.10;99.90
13982;DHT22;7065;50.880;5.502;2024-01-15T03:51:20;1.00;99.90
13982;DHT22;7065;50.880;5.502;2024-01-15T03:53:46;1.00;99.90
13982;DHT22;7065;50.880;5.502;2024-01-15T03:56:12;1.00;99.90
13982;DHT22;7065;50.880;5.502;2024-01-15T03:58:38;1.00;99.90
13982;DHT22;7065;50.880;5.502;2024-01-15T04:01:03;1.00;99.90
13982;DHT22;7065;50.880;5.502;2024-01-15T04:03:32;1.00;99.90
13982;DHT22;7065;50.880;5.502;2024-01-15T04:05:58;1.00;99.90
13982;DHT22;7065;50.880;5.502;2024-01-15T04:08:24;1.00;99.90
13982;DHT22;7065;50.880;5.502;2024-01-15T04:10:49;1.00;99.90
13982;DHT22;7065;50.880;5.502;2024-01-15T04:13:15;1.00;99.90
13982;DHT22;7065;50.880;5.502;2024-01-15T04:15:40;1.00;99.90
13982;DHT22;7065;50.880;5.502;2024-01-15T04:18:06;1.00;99.90
13982;DHT22;7065;50.880;5.502;2024-01-15T04:20:32;1.00;99.90
13982;DHT22;7065;50.880;5.502;2024-01-15T04:22:57;1.00;99.90
13982;DHT22;7065;50.880;5.502;2024-01-15T04:25:23;1.00;99.90
13982;DHT22;7065;50.880;5.502;2024-01-15T04:27:49;0.90;99.90
13982;DHT22;7065;50.880;5.502;2024-01-15T04:30:15;0.90;99.90
13982;DHT22;7065;50.880;5.502;2024-01-15T04:32:41;1.00;99.90
13982;DHT22;7065;50.880;5.502;2024-01-15T04:35:07;1.00;99.90
13982;DHT22;7065;50.880;5.502;2024-01-15T04:37:33;0.90;99.90
13982;DHT22;7065;50.880;5.502;2024-01-15T04:39:59;0.90;99.90
13982;DHT22;7065;50.880;5.502;2024-01-15T04:42:25;1.00;99.90
13982;DHT22;7065;50.880;5.502;2024-01-15T04:44:50;1.00;99.90
13982;DHT22;7065;50.880;5.502;2024-01-15T04:47:16;0.90;99.90
13982;DHT22;7065;50.880;5.502;2024-01-15T04:49:42;0.90;99.90
13982;DHT22;7065;50.880;5.502;2024-01-15T04:52:07;0.90;99.90
13982;DHT22;7065;50.880;5.502;2024-01-15T04:54:36;0.90;99.90
13982;DHT22;7065;50.880;5.502;2024-01-15T04:57:01;0.90;99.90
13982;DHT22;7065;50.880;5.502;2024-01-15T04:59:28;0.90;99.90
13982;DHT22;7065;50.880;5.502;2024-01-15T05:01:54;0.90;99.90
13982;DHT22;7065;50.880;5.502;2024-01-15T05:04:20;0.90;99.90
13982;DHT22;7065;50.880;5.502;2024-01-15T05:06:46;0.90;99.90
13982;DHT22;7065;50.880;5.502;2024-01-15T05:09:11;1.00;99.90
13982;DHT22;7065;50.880;5.502;2024-01-15T05:11:39;1.00;99.90
13982;DHT22;7065;50.880;5.502;2024-01-15T05:14:04;1.00;99.90
13982;DHT22;7065;50.880;5.502;2024-01-15T05:16:31;0.90;99.90
13982;DHT22;7065;50.880;5.502;2024-01-15T05:18:56;0.90;99.90
13982;DHT22;7065;50.880;5.502;2024-01-15T05:21:22;0.90;99.90
13982;DHT22;7065;50.880;5.502;2024-01-15T05:23:47;0.90;99.90
13982;DHT22;7065;50.880;5.502;2024-01-15T05:26:13;0.90;99.90
13982;DHT22;7065;50.880;5.502;2024-01-15T05:28:41;1.00;99.90
13982;DHT22;7065;50.880;5.502;2024-01-15T05:31:08;0.90;99.90
13982;DHT22;7065;50.880;5.502;2024-01-15T05:33:36;1.00;99.90
13982;DHT22;7065;50.880;5.502;2024-01-15T05:36:01;1.00;99.90
13982;DHT22;7065;50.880;5.502;2024-01-15T05:38:28;1.00;99.90
13982;DHT22;7065;50.880;5.502;2024-01-15T05:40:53;1.00;99.90
13982;DHT22;7065;50.880;5.502;2024-01-15T05:43:19;1.00;99.90
13982;DHT22;7065;50.880;5.502;2024-01-15T05:45:45;0.90;99.90
13982;DHT22;7065;50.880;5.502;2024-01-15T05:48:11;0.90;99.90
13982;DHT22;7065;50.880;5.502;2024-01-15T05:50:38;0.90;99.90
13982;DHT22;7065;50.880;5.502;2024-01-15T05:53:04;0.90;99.90
13982;DHT22;7065;50.880;5.502;2024-01-15T05:55:30;0.90;99.90
13982;DHT22;7065;50.880;5.502;2024-01-15T05:57:56;0.90;99.90
13982;DHT22;7065;50.880;5.502;2024-01-15T06:00:22;0.90;99.90
13982;DHT22;7065;50.880;5.502;2024-01-15T06:02:47;0.90;99.90
13982;DHT22;7065;50.880;5.502;2024-01-15T06:05:13;0.80;99.90
13982;DHT22;7065;50.880;5.502;2024-01-15T06:07:39;0.80;99.90
13982;DHT22;7065;50.880;5.502;2024-01-15T06:10:05;0.70;99.90
13982;DHT22;7065;50.880;5.502;2024-01-15T06:12:31;0.70;99.90
13982;DHT22;7065;50.880;5.502;2024-01-15T06:14:58;0.70;99.90
13982;DHT22;7065;50.880;5.502;2024-01-15T06:17:23;0.70;99.90
13982;DHT22;7065;50.880;5.502;2024-01-15T06:19:49;0.70;99.90
13982;DHT22;7065;50.880;5.502;2024-01-15T06:22:15;0.70;99.90
13982;DHT22;7065;50.880;5.502;2024-01-15T06:24:41;0.70;99.90
13982;DHT22;7065;50.880;5.502;2024-01-15T06:27:06;0.70;99.90
13982;DHT22;7065;50.880;5.502;2024-01-15T06:29:32;0.70;99.90
13982;DHT22;7065;50.880;5.502;2024-01-15T06:31:58;0.70;99.90
13982;DHT22;7065;50.880;5.502;2024-01-15T06:34:24;0.70;99.90
13982;DHT22;7065;50.880;5.502;2024-01-15T06:36:49;0.60;99.90
13982;DHT22;7065;50.880;5.502;2024-01-15T06:39:15;0.70;99.90
13982;DHT22;7065;50.880;5.502;2024-01-15T06:41:41;0.60;99.90
13982;DHT22;7065;50.880;5.502;2024-01-15T06:44:12;0.60;99.90
13982;DHT22;7065;50.880;5.502;2024-01-15T06:46:44;0.60;99.90
13982;DHT22;7065;50.880;5.502;2024-01-15T06:49:10;0.60;99.90
13982;DHT22;7065;50.880;5.502;2024-01-15T06:51:36;0.60;99.90
13982;DHT22;7065;50.880;5.502;2024-01-15T06:54:02;0.60;99.90
13982;DHT22;7065;50.880;5.502;2024-01-15T06:56:27;0.60;99.90
13982;DHT22;7065;50.880;5.502;2024-01-15T06:58:53;0.60;99.90
13982;DHT22;7065;50.880;5.502;2024-01-15T07:01:19;0.60;99.90
13982;DHT22;7065;50.880;5.502;2024-01-15T07:03:44;0.60;99.90
13982;DHT22;7065;50.880;5.502;2024-01-15T07:06:11;0.60;99.90
13982;DHT22;7065;50.880;5.502;2024-01-15T07:08:39;0.60;99.90
13982;DHT22;7065;50.880;5.502;2024-01-15T07:11:06;0.60;99.90
13982;DHT22;7065;50.880;5.502;2024-01-15T07:13:32;0.60;99.90
13982;DHT22;7065;50.880;5.502;2024-01-15T07:15:59;0.70;99.90
13982;DHT22;7065;50.880;5.502;2024-01-15T07:18:24;0.70;99.90
13982;DHT22;7065;50.880;5.502;2024-01-15T07:20:50;0.70;99.90
13982;DHT22;7065;50.880;5.502;2024-01-15T07:23:16;0.70;99.90
13982;DHT22;7065;50.880;5.502;2024-01-15T07:25:43;0.80;99.90
13982;DHT22;7065;50.880;5.502;2024-01-15T07:28:09;0.80;99.90
13982;DHT22;7065;50.880;5.502;2024-01-15T07:30:35;0.80;99.90
13982;DHT22;7065;50.880;5.502;2024-01-15T07:33:04;0.80;99.90
13982;DHT22;7065;50.880;5.502;2024-01-15T07:35:29;0.80;99.90
13982;DHT22;7065;50.880;5.502;2024-01-15T07:37:55;0.90;99.90
13982;DHT22;7065;50.880;5.502;2024-01-15T07:40:21;0.90;99.90
13982;DHT22;7065;50.880;5.502;2024-01-15T07:42:47;0.90;99.90
13982;DHT22;7065;50.880;5.502;2024-01-15T07:45:13;0.80;99.90
13982;DHT22;7065;50.880;5.502;2024-01-15T07:47:38;0.80;99.90
13982;DHT22;7065;50.880;5.502;2024-01-15T07:50:05;0.90;99.90
13982;DHT22;7065;50.880;5.502;2024-01-15T07:52:31;0.80;99.90
13982;DHT22;7065;50.880;5.502;2024-01-15T07:54:57;0.90;99.90
13982;DHT22;7065;50.880;5.502;2024-01-15T07:57:25;0.90;99.90
13982;DHT22;7065;50.880;5.502;2024-01-15T07:59:50;0.90;99.90
13982;DHT22;7065;50.880;5.502;2024-01-15T08:02:17;0.90;99.90
13982;DHT22;7065;50.880;5.502;2024-01-15T08:04:42;0.90;99.90
13982;DHT22;7065;50.880;5.502;2024-01-15T08:07:08;0.90;99.90
13982;DHT22;7065;50.880;5.502;2024-01-15T08:09:34;1.00;99.90
13982;DHT22;7065;50.880;5.502;2024-01-15T08:12:00;1.00;99.90
13982;DHT22;7065;50.880;5.502;2024-01-15T08:14:26;1.00;99.90
13982;DHT22;7065;50.880;5.502;2024-01-15T08:16:52;1.00;99.90
13982;DHT22;7065;50.880;5.502;2024-01-15T08:19:17;1.00;99.90
13982;DHT22;7065;50.880;5.502;2024-01-15T08:21:45;1.00;99.90
13982;DHT22;7065;50.880;5.502;2024-01-15T08:24:11;1.00;99.90
13982;DHT22;7065;50.880;5.502;2024-01-15T08:26:36;1.00;99.90
13982;DHT22;7065;50.880;5.502;2024-01-15T08:29:02;1.10;99.90
13982;DHT22;7065;50.880;5.502;2024-01-15T08:31:28;1.10;99.90
13982;DHT22;7065;50.880;5.502;2024-01-15T08:33:53;1.10;99.90
13982;DHT22;7065;50.880;5.502;2024-01-15T08:36:19;1.20;99.90
13982;DHT22;7065;50.880;5.502;2024-01-15T08:38:45;1.10;99.90
13982;DHT22;7065;50.880;5.502;2024-01-15T08:41:10;1.10;99.90
13982;DHT22;7065;50.880;5.502;2024-01-15T08:43:36;1.10;99.90
13982;DHT22;7065;50.880;5.502;2024-01-15T08:46:02;1.10;99.90
13982;DHT22;7065;50.880;5.502;2024-01-15T08:48:28;1.10;99.90
13982;DHT22;7065;50.880;5.502;2024-01-15T08:50:54;1.10;99.90
13982;DHT22;7065;50.880;5.502;2024-01-15T08:53:21;1.10;99.90
13982;DHT22;7065;50.880;5.502;2024-01-15T08:55:47;1.00;99.90
13982;DHT22;7065;50.880;5.502;2024-01-15T08:58:13;1.00;99.90
13982;DHT22;7065;50.880;5.502;2024-01-15T09:00:40;1.00;99.90
13982;DHT22;7065;50.880;5.502;2024-01-15T09:03:06;1.00;99.90
13982;DHT22;7065;50.880;5.502;2024-01-15T09:05:33;1.00;99.90
13982;DHT22;7065;50.880;5.502;2024-01-15T09:07:59;1.00;99.90
13982;DHT22;7065;50.880;5.502;2024-01-15T09:10:25;1.00;99.90
13982;DHT22;7065;50.880;5.502;2024-01-15T09:12:50;1.00;99.90
13982;DHT22;7065;50.880;5.502;2024-01-15T09:15:16;1.00;99.90
13982;DHT22;7065;50.880;5.502;2024-01-15T09:17:42;1.00;99.90
13982;DHT22;7065;50.880;5.502;2024-01-15T09:20:09;1.00;99.90
13982;DHT22;7065;50.880;5.502;2024-01-15T09:22:37;1.00;99.90
13982;DHT22;7065;50.880;5.502;2024-01-15T09:25:05;0.90;99.90
13982;DHT22;7065;50.880;5.502;2024-01-15T09:27:30;0.90;99.90
13982;DHT22;7065;50.880;5.502;2024-01-15T09:29:56;0.90;99.90
13982;DHT22;7065;50.880;5.502;2024-01-15T09:32:22;0.90;99.90
13982;DHT22;7065;50.880;5.502;2024-01-15T09:34:48;0.90;99.90
13982;DHT22;7065;50.880;5.502;2024-01-15T09:37:14;0.90;99.90
13982;DHT22;7065;50.880;5.502;2024-01-15T09:39:40;0.90;99.90
13982;DHT22;7065;50.880;5.502;2024-01-15T09:42:06;1.00;99.90
13982;DHT22;7065;50.880;5.502;2024-01-15T09:44:32;1.00;99.90
13982;DHT22;7065;50.880;5.502;2024-01-15T09:46:59;1.00;99.90
13982;DHT22;7065;50.880;5.502;2024-01-15T09:49:25;1.10;99.90
13982;DHT22;7065;50.880;5.502;2024-01-15T09:51:51;1.10;99.90
13982;DHT22;7065;50.880;5.502;2024-01-15T09:54:17;1.10;99.90
13982;DHT22;7065;50.880;5.502;2024-01-15T09:56:46;1.10;99.90
13982;DHT22;7065;50.880;5.502;2024-01-15T09:59:18;1.10;99.90
13982;DHT22;7065;50.880;5.502;2024-01-15T10:01:44;1.20;99.90
13982;DHT22;7065;50.880;5.502;2024-01-15T10:04:12;1.20;99.90
13982;DHT22;7065;50.880;5.502;2024-01-15T10:06:39;1.20;99.90
13982;DHT22;7065;50.880;5.502;2024-01-15T10:09:07;1.30;99.90
13982;DHT22;7065;50.880;5.502;2024-01-15T10:11:33;1.30;99.90
13982;DHT22;7065;50.880;5.502;2024-01-15T10:13:59;1.30;99.90
13982;DHT22;7065;50.880;5.502;2024-01-15T10:16:25;1.40;99.90
13982;DHT22;7065;50.880;5.502;2024-01-15T10:18:51;1.40;99.90
13982;DHT22;7065;50.880;5.502;2024-01-15T10:21:17;1.40;99.90
13982;DHT22;7065;50.880;5.502;2024-01-15T10:23:43;1.50;99.90
13982;DHT22;7065;50.880;5.502;2024-01-15T10:26:09;1.50;99.90
13982;DHT22;7065;50.880;5.502;2024-01-15T10:28:37;1.50;99.90
13982;DHT22;7065;50.880;5.502;2024-01-15T10:31:03;1.50;99.90
13982;DHT22;7065;50.880;5.502;2024-01-15T10:33:30;1.60;99.90
13982;DHT22;7065;50.880;5.502;2024-01-15T10:36:00;1.70;99.90
13982;DHT22;7065;50.880;5.502;2024-01-15T10:38:26;1.80;99.90
13982;DHT22;7065;50.880;5.502;2024-01-15T10:43:19;2.00;99.90
13982;DHT22;7065;50.880;5.502;2024-01-15T10:45:46;2.00;99.90
13982;DHT22;7065;50.880;5.502;2024-01-15T10:48:12;2.10;99.90
13982;DHT22;7065;50.880;5.502;2024-01-15T10:50:38;2.10;99.90
13982;DHT22;7065;50.880;5.502;2024-01-15T10:53:04;2.00;99.90
13982;DHT22;7065;50.880;5.502;2024-01-15T10:55:33;2.10;99.90
13982;DHT22;7065;50.880;5.502;2024-01-15T10:58:01;2.10;99.90
13982;DHT22;7065;50.880;5.502;2024-01-15T11:00:29;2.20;99.90
13982;DHT22;7065;50.880;5.502;2024-01-15T11:02:55;2.30;99.90
13982;DHT22;7065;50.880;5.502;2024-01-15T11:05:23;2.30;99.90
13982;DHT22;7065;50.880;5.502;2024-01-15T11:07:50;2.40;99.90
13982;DHT22;7065;50.880;5.502;2024-01-15T11:10:43;2.50;99.90
13982;DHT22;7065;50.880;5.502;2024-01-15T11:18:34;2.40;99.90
13982;DHT22;7065;50.880;5.502;2024-01-15T11:23:56;2.60;99.90
13982;DHT22;7065;50.880;5.502;2024-01-15T11:26:36;2.70;99.90
13982;DHT22;7065;50.880;5.502;2024-01-15T11:29:32;2.90;99.90
13982;DHT22;7065;50.880;5.502;2024-01-15T11:37:19;3.20;99.90
13982;DHT22;7065;50.880;5.502;2024-01-15T11:39:45;3.00;99.90
13982;DHT22;7065;50.880;5.502;2024-01-15T11:42:14;3.00;99.90
13982;DHT22;7065;50.880;5.502;2024-01-15T11:44:41;2.90;99.90
13982;DHT22;7065;50.880;5.502;2024-01-15T11:47:08;2.80;99.90
13982;DHT22;7065;50.880;5.502;2024-01-15T11:52:06;2.70;99.90
13982;DHT22;7065;50.880;5.502;2024-01-15T11:54:38;2.70;99.90
13982;DHT22;7065;50.880;5.502;2024-01-15T11:57:11;2.60;99.90
13982;DHT22;7065;50.880;5.502;2024-01-15T11:59:41;2.40;99.90
13982;DHT22;7065;50.880;5.502;2024-01-15T12:02:08;2.20;99.90
13982;DHT22;7065;50.880;5.502;2024-01-15T12:04:37;2.00;99.90
13982;DHT22;7065;50.880;5.502;2024-01-15T12:07:02;1.80;99.90
13982;DHT22;7065;50.880;5.502;2024-01-15T12:09:28;1.70;99.90
13982;DHT22;7065;50.880;5.502;2024-01-15T12:12:01;1.60;99.90
13982;DHT22;7065;50.880;5.502;2024-01-15T12:14:31;1.50;99.90
13982;DHT22;7065;50.880;5.502;2024-01-15T12:16:57;1.40;99.90
13982;DHT22;7065;50.880;5.502;2024-01-15T12:19:23;1.30;99.90
13982;DHT22;7065;50.880;5.502;2024-01-15T12:21:51;1.20;99.90
13982;DHT22;7065;50.880;5.502;2024-01-15T12:24:17;1.20;99.90
13982;DHT22;7065;50.880;5.502;2024-01-15T12:26:43;1.20;99.90
13982;DHT22;7065;50.880;5.502;2024-01-15T12:29:11;1.10;99.90
13982;DHT22;7065;50.880;5.502;2024-01-15T12:31:36;1.10;99.90
13982;DHT22;7065;50.880;5.502;2024-01-15T12:34:02;1.10;99.90
13982;DHT22;7065;50.880;5.502;2024-01-15T12:36:31;1.20;99.90
13982;DHT22;7065;50.880;5.502;2024-01-15T12:39:00;1.20;99.90
13982;DHT22;7065;50.880;5.502;2024-01-15T12:41:25;1.20;99.90
13982;DHT22;7065;50.880;5.502;2024-01-15T12:43:51;1.20;99.90
13982;DHT22;7065;50.880;5.502;2024-01-15T12:46:17;1.10;99.90
13982;DHT22;7065;50.880;5.502;2024-01-15T12:48:44;1.10;99.90
13982;DHT22;7065;50.880;5.502;2024-01-15T12:51:10;1.00;99.90
13982;DHT22;7065;50.880;5.502;2024-01-15T12:53:36;1.00;99.90
13982;DHT22;7065;50.880;5.502;2024-01-15T12:56:01;1.00;99.90
13982;DHT22;7065;50.880;5.502;2024-01-15T12:58:27;1.00;99.90
13982;DHT22;7065;50.880;5.502;2024-01-15T13:00:53;1.00;99.90
13982;DHT22;7065;50.880;5.502;2024-01-15T13:03:19;1.00;99.90
13982;DHT22;7065;50.880;5.502;2024-01-15T13:05:45;1.10;99.90
13982;DHT22;7065;50.880;5.502;2024-01-15T13:08:11;1.20;99.90
13982;DHT22;7065;50.880;5.502;2024-01-15T13:10:37;1.30;99.90
13982;DHT22;7065;50.880;5.502;2024-01-15T13:13:03;1.30;99.90
13982;DHT22;7065;50.880;5.502;2024-01-15T13:15:29;1.40;99.90
13982;DHT22;7065;50.880;5.502;2024-01-15T13:17:55;1.50;99.90
13982;DHT22;7065;50.880;5.502;2024-01-15T13:20:21;1.50;99.90
13982;DHT22;7065;50.880;5.502;2024-01-15T13:22:47;1.50;99.90
13982;DHT22;7065;50.880;5.502;2024-01-15T13:25:13;1.50;99.90
13982;DHT22;7065;50.880;5.502;2024-01-15T13:27:38;1.40;99.90
13982;DHT22;7065;50.880;5.502;2024-01-15T13:30:05;1.40;99.90
13982;DHT22;7065;50.880;5.502;2024-01-15T13:32:32;1.40;99.90
13982;DHT22;7065;50.880;5.502;2024-01-15T13:34:59;1.40;99.90
13982;DHT22;7065;50.880;5.502;2024-01-15T13:37:24;1.40;99.90
13982;DHT22;7065;50.880;5.502;2024-01-15T13:39:51;1.40;99.90
13982;DHT22;7065;50.880;5.502;2024-01-15T13:42:20;1.40;99.90
13982;DHT22;7065;50.880;5.502;2024-01-15T13:44:48;1.40;99.90
13982;DHT22;7065;50.880;5.502;2024-01-15T13:47:14;1.40;99.90
13982;DHT22;7065;50.880;5.502;2024-01-15T13:49:40;1.40;99.90
13982;DHT22;7065;50.880;5.502;2024-01-15T13:52:06;1.40;99.90
13982;DHT22;7065;50.880;5.502;2024-01-15T13:54:31;1.40;99.90
13982;DHT22;7065;50.880;5.502;2024-01-15T13:56:58;1.40;99.90
13982;DHT22;7065;50.880;5.502;2024-01-15T13:59:24;1.40;99.90
13982;DHT22;7065;50.880;5.502;2024-01-15T14:01:50;1.40;99.90
13982;DHT22;7065;50.880;5.502;2024-01-15T14:04:16;1.40;99.90
13982;DHT22;7065;50.880;5.502;2024-01-15T14:06:41;1.40;99.90
13982;DHT22;7065;50.880;5.502;2024-01-15T14:09:07;1.40;99.90
13982;DHT22;7065;50.880;5.502;2024-01-15T14:11:36;1.40;99.90
13982;DHT22;7065;50.880;5.502;2024-01-15T14:14:03;1.40;99.90
13982;DHT22;7065;50.880;5.502;2024-01-15T14:16:28;1.40;99.90
13982;DHT22;7065;50.880;5.502;2024-01-15T14:18:54;1.40;99.90
13982;DHT22;7065;50.880;5.502;2024-01-15T14:21:20;1.40;99.90
13982;DHT22;7065;50.880;5.502;2024-01-15T14:23:45;1.30;99.90
13982;DHT22;7065;50.880;5.502;2024-01-15T14:26:11;1.30;99.90
13982;DHT22;7065;50.880;5.502;2024-01-15T14:28:37;1.30;99.90
13982;DHT22;7065;50.880;5.502;2024-01-15T14:31:04;1.30;99.90
13982;DHT22;7065;50.880;5.502;2024-01-15T14:33:31;1.30;99.90
13982;DHT22;7065;50.880;5.502;2024-01-15T14:35:57;1.40;99.90
13982;DHT22;7065;50.880;5.502;2024-01-15T14:38:23;1.30;99.90
13982;DHT22;7065;50.880;5.502;2024-01-15T14:40:49;1.30;99.90
13982;DHT22;7065;50.880;5.502;2024-01-15T14:43:15;1.30;99.90
13982;DHT22;7065;50.880;5.502;2024-01-15T14:45:41;1.30;99.90
13982;DHT22;7065;50.880;5.502;2024-01-15T14:48:07;1.30;99.90
13982;DHT22;7065;50.880;5.502;2024-01-15T14:50:32;1.30;99.90
13982;DHT22;7065;50.880;5.502;2024-01-15T14:52:58;1.30;99.90
13982;DHT22;7065;50.880;5.502;2024-01-15T14:55:24;1.30;99.90
13982;DHT22;7065;50.880;5.502;2024-01-15T14:57:52;1.20;99.90
13982;DHT22;7065;50.880;5.502;2024-01-15T15:00:18;1.20;99.90
13982;DHT22;7065;50.880;5.502;2024-01-15T15:02:44;1.20;99.90
13982;DHT22;7065;50.880;5.502;2024-01-15T15:05:10;1.20;99.90
13982;DHT22;7065;50.880;5.502;2024-01-15T15:07:36;1.20;99.90
13982;DHT22;7065;50.880;5.502;2024-01-15T15:10:02;1.20;99.90
13982;DHT22;7065;50.880;5.502;2024-01-15T15:12:30;1.20;99.90
13982;DHT22;7065;50.880;5.502;2024-01-15T15:14:56;1.20;99.90
13982;DHT22;7065;50.880;5.502;2024-01-15T15:17:22;1.20;99.90
13982;DHT22;7065;50.880;5.502;2024-01-15T15:19:47;1.20;99.90
13982;DHT22;7065;50.880;5.502;2024-01-15T15:22:13;1.20;99.90
13982;DHT22;7065;50.880;5.502;2024-01-15T15:24:39;1.20;99.90
13982;DHT22;7065;50.880;5.502;2024-01-15T15:27:05;1.20;99.90
13982;DHT22;7065;50.880;5.502;2024-01-15T15:29:32;1.20;99.90
13982;DHT22;7065;50.880;5.502;2024-01-15T15:31:58;1.20;99.90
13982;DHT22;7065;50.880;5.502;2024-01-15T15:34:23;1.20;99.90
13982;DHT22;7065;50.880;5.502;2024-01-15T15:36:49;1.20;99.90
13982;DHT22;7065;50.880;5.502;2024-01-15T15:39:15;1.20;99.90
13982;DHT22;7065;50.880;5.502;2024-01-15T15:41:42;1.20;99.90
13982;DHT22;7065;50.880;5.502;2024-01-15T15:44:07;1.20;99.90
13982;DHT22;7065;50.880;5.502;2024-01-15T15:46:35;1.10;99.90
13982;DHT22;7065;50.880;5.502;2024-01-15T15:49:01;1.10;99.90
13982;DHT22;7065;50.880;5.502;2024-01-15T15:51:33;1.10;99.90
13982;DHT22;7065;50.880;5.502;2024-01-15T15:53:58;1.00;99.90
13982;DHT22;7065;50.880;5.502;2024-01-15T15:56:24;1.00;99.90
13982;DHT22;7065;50.880;5.502;2024-01-15T15:58:53;0.90;99.90
13982;DHT22;7065;50.880;5.502;2024-01-15T16:01:19;0.90;99.90
13982;DHT22;7065;50.880;5.502;2024-01-15T16:03:45;0.90;99.90
13982;DHT22;7065;50.880;5.502;2024-01-15T16:06:10;0.90;99.90
13982;DHT22;7065;50.880;5.502;2024-01-15T16:08:36;0.90;99.90
13982;DHT22;7065;50.880;5.502;2024-01-15T16:11:02;0.80;99.90
13982;DHT22;7065;50.880;5.502;2024-01-15T16:13:27;0.80;99.90
13982;DHT22;7065;50.880;5.502;2024-01-15T16:15:53;0.80;99.90